Terminal Aerodrome Forecast
Issued by NWS Cleveland, OH

Home | Current Version | Previous Version | Graphics & Text | Print | Product List | Glossary On
Versions: 1 2 3 4 5 6 7 8 9 10 11 12 13 14 15 16 17 18 19 20 21 22 23 24 25
000
FTUS41 KCLE 022300
TAFCAK
TAF
KCAK 022334Z 0300/0324 29007KT P6SM SCT250
     FM030200 VRB03KT P6SM OVC200
     FM031600 14005KT 4SM -FZRAPL BR SCT015 OVC040
     FM032000 19012KT 2SM -RA BR OVC006 WS020/22040KT=

USA.gov is the U.S. government's official web portal to all federal, state and local government web resources and services.